Time;durP1;ratioP1;P1;durP2;ratioP2;P2;SDS_P1;SDS_P2;PMS_P1;PMS_P2;Temp;Humidity;BMP_temperature;BMP_pressure;BME280_temperature;BME280_humidity;BME280_pressure;Samples;Min_cycle;Max_cycle;Signal;HPM_P1;HPM_P2
2024/01/22 00:01:35;;;;;;;9.02;5.25;;;6.90;99.90;;;;;;5089722;28;20040;-63
2024/01/22 00:04:01;;;;;;;12.73;5.47;;;7.00;99.90;;;;;;5090880;28;20040;-63
2024/01/22 00:06:27;;;;;;;12.77;6.40;;;7.00;99.90;;;;;;5073288;28;20054;-63
2024/01/22 00:08:52;;;;;;;8.60;4.88;;;6.90;99.90;;;;;;5089833;28;20045;-63
2024/01/22 00:11:18;;;;;;;11.13;5.30;;;7.00;99.90;;;;;;5091577;28;20109;-64
2024/01/22 00:13:43;;;;;;;10.85;5.78;;;7.00;99.90;;;;;;5090524;28;20366;-64
2024/01/22 00:16:09;;;;;;;10.95;5.22;;;7.00;99.90;;;;;;5089977;28;20476;-63
2024/01/22 00:18:36;;;;;;;10.70;5.25;;;7.10;99.90;;;;;;5091655;28;20114;-63
2024/01/22 00:21:01;;;;;;;9.70;4.60;;;7.10;99.90;;;;;;5073548;28;20032;-64
2024/01/22 00:23:27;;;;;;;11.35;5.65;;;7.10;99.90;;;;;;5089613;28;20075;-64
2024/01/22 00:25:53;;;;;;;10.68;4.78;;;7.10;99.90;;;;;;5090049;28;20127;-63
2024/01/22 00:28:18;;;;;;;11.18;5.78;;;7.10;99.90;;;;;;5091158;28;20174;-63
2024/01/22 00:30:44;;;;;;;13.98;5.05;;;7.20;99.90;;;;;;5090848;28;20465;-64
2024/01/22 00:33:10;;;;;;;8.85;4.93;;;7.20;99.90;;;;;;5091520;28;20079;-64
2024/01/22 00:35:35;;;;;;;10.27;4.53;;;7.30;99.90;;;;;;5093109;28;20043;-63
2024/01/22 00:38:01;;;;;;;13.20;5.45;;;7.30;99.90;;;;;;5093393;28;20044;-63
2024/01/22 00:40:26;;;;;;;7.85;4.50;;;7.30;99.90;;;;;;5093985;28;20059;-63
2024/01/22 00:42:52;;;;;;;9.15;4.85;;;7.30;99.90;;;;;;5093615;28;20050;-63
2024/01/22 00:45:18;;;;;;;9.55;4.57;;;7.40;99.90;;;;;;5094338;28;20475;-63
2024/01/22 00:47:43;;;;;;;9.05;5.05;;;7.30;99.90;;;;;;5092866;28;20492;-63
2024/01/22 00:50:09;;;;;;;9.63;4.07;;;7.30;99.90;;;;;;5093764;28;20036;-63
2024/01/22 00:52:35;;;;;;;10.00;4.45;;;7.30;99.90;;;;;;5092857;28;20040;-63
2024/01/22 00:55:01;;;;;;;8.65;4.80;;;7.40;99.90;;;;;;5093656;28;20048;-63
2024/01/22 00:57:26;;;;;;;8.07;4.68;;;7.30;99.90;;;;;;5094726;28;20044;-64
2024/01/22 00:59:52;;;;;;;8.13;4.68;;;7.30;99.90;;;;;;5092822;28;20481;-63
2024/01/22 01:02:18;;;;;;;11.93;4.90;;;7.40;99.90;;;;;;5093726;28;20047;-64
2024/01/22 01:04:43;;;;;;;12.00;5.18;;;7.40;99.90;;;;;;5094125;28;20453;-64
2024/01/22 01:07:09;;;;;;;12.77;5.43;;;7.30;99.90;;;;;;5087615;28;20119;-64
2024/01/22 01:09:35;;;;;;;9.75;4.90;;;7.40;99.90;;;;;;5082845;28;20542;-65
2024/01/22 01:12:00;;;;;;;8.52;4.68;;;7.40;99.90;;;;;;5109582;28;20083;-64
2024/01/22 01:14:26;;;;;;;13.98;4.82;;;7.40;99.90;;;;;;5094355;28;20044;-64
2024/01/22 01:16:52;;;;;;;12.63;4.47;;;7.40;99.90;;;;;;5094317;28;20040;-64
2024/01/22 01:19:17;;;;;;;8.30;4.80;;;7.50;99.90;;;;;;5092109;28;20042;-64
2024/01/22 01:21:43;;;;;;;11.45;6.72;;;7.50;99.90;;;;;;5093185;28;20439;-64
2024/01/22 01:24:08;;;;;;;8.02;3.85;;;7.50;99.90;;;;;;5094200;28;20465;-64
2024/01/22 01:26:42;;;;;;;9.15;4.75;;;7.60;99.90;;;;;;5091608;28;20036;-63
2024/01/22 01:29:08;;;;;;;12.88;4.97;;;7.60;99.90;;;;;;5092895;28;20048;-63
2024/01/22 01:31:34;;;;;;;8.85;4.55;;;7.70;99.90;;;;;;5094113;28;20051;-63
2024/01/22 01:34:00;;;;;;;9.27;4.80;;;7.80;99.90;;;;;;5092673;28;20489;-63
2024/01/22 01:36:25;;;;;;;8.27;4.25;;;7.80;99.90;;;;;;5092671;28;20044;-63
2024/01/22 01:38:51;;;;;;;10.10;4.63;;;7.80;99.90;;;;;;5092586;28;20055;-63
2024/01/22 01:41:17;;;;;;;9.80;6.03;;;7.90;99.90;;;;;;5093216;28;20044;-63
2024/01/22 01:43:42;;;;;;;10.45;4.40;;;8.00;99.90;;;;;;5093270;28;20051;-63
2024/01/22 01:46:08;;;;;;;11.57;5.28;;;8.00;99.90;;;;;;5093314;28;20036;-63
2024/01/22 01:48:34;;;;;;;7.38;4.55;;;8.10;99.90;;;;;;5092236;28;20036;-63
2024/01/22 01:51:00;;;;;;;10.43;4.80;;;8.10;99.90;;;;;;5094125;28;20040;-62
2024/01/22 01:53:27;;;;;;;8.30;4.70;;;8.10;99.90;;;;;;5093269;28;20040;-62
2024/01/22 01:55:53;;;;;;;7.53;4.30;;;8.10;99.90;;;;;;5092068;28;20388;-61
2024/01/22 01:58:20;;;;;;;9.90;4.82;;;8.10;99.90;;;;;;5092222;28;20130;-62
2024/01/22 02:00:48;;;;;;;8.30;4.45;;;8.20;99.90;;;;;;5093505;28;20505;-62
2024/01/22 02:03:14;;;;;;;7.63;4.55;;;8.30;99.90;;;;;;5091383;28;20087;-62
2024/01/22 02:05:39;;;;;;;7.90;4.70;;;8.30;99.90;;;;;;5093441;28;20072;-61
2024/01/22 02:08:06;;;;;;;12.13;4.53;;;8.30;99.90;;;;;;5082439;28;20128;-61
2024/01/22 02:10:32;;;;;;;8.23;4.78;;;8.30;99.90;;;;;;5073039;28;20036;-61
2024/01/22 02:12:57;;;;;;;13.43;4.38;;;8.30;99.90;;;;;;5072348;28;20128;-62
2024/01/22 02:15:23;;;;;;;9.00;4.22;;;8.40;99.90;;;;;;5072221;28;20577;-62
2024/01/22 02:17:48;;;;;;;10.68;4.13;;;8.40;99.90;;;;;;5087674;28;20047;-62
2024/01/22 02:20:14;;;;;;;10.00;4.32;;;8.40;99.90;;;;;;5093208;28;20464;-62
2024/01/22 02:22:40;;;;;;;10.65;4.38;;;8.50;99.90;;;;;;5092199;28;20424;-62
2024/01/22 02:25:06;;;;;;;9.40;4.82;;;8.50;99.90;;;;;;5092218;28;20385;-62
2024/01/22 02:27:32;;;;;;;8.52;4.38;;;8.50;99.90;;;;;;5092756;28;20111;-62
2024/01/22 02:29:57;;;;;;;10.73;5.50;;;8.50;99.90;;;;;;5091351;28;20140;-62
2024/01/22 02:32:23;;;;;;;11.23;4.80;;;8.50;99.90;;;;;;5092687;28;20051;-62
2024/01/22 02:34:48;;;;;;;10.25;4.20;;;8.50;99.90;;;;;;5074794;28;20082;-62
2024/01/22 02:37:15;;;;;;;8.88;4.40;;;8.50;99.90;;;;;;5091479;28;20044;-62
2024/01/22 02:39:41;;;;;;;9.55;4.90;;;8.60;99.90;;;;;;5091440;28;20059;-62
2024/01/22 02:42:07;;;;;;;10.75;4.50;;;8.60;99.90;;;;;;5093126;28;20051;-62
2024/01/22 02:44:35;;;;;;;11.23;5.18;;;8.50;99.90;;;;;;5073394;28;20040;-62
2024/01/22 02:47:02;;;;;;;8.57;4.25;;;8.60;99.90;;;;;;5092583;28;20032;-62
2024/01/22 02:49:28;;;;;;;11.02;4.10;;;8.70;99.90;;;;;;5091480;28;20075;-61
2024/01/22 02:51:54;;;;;;;8.43;4.35;;;8.60;99.90;;;;;;5107383;28;20071;-61
2024/01/22 02:54:19;;;;;;;8.57;4.07;;;8.70;99.90;;;;;;5092690;28;20152;-62
2024/01/22 02:56:45;;;;;;;13.27;4.97;;;8.70;99.90;;;;;;5091106;28;20043;-62
2024/01/22 02:59:11;;;;;;;9.60;3.58;;;8.70;99.90;;;;;;5090114;28;20052;-62
2024/01/22 03:01:37;;;;;;;9.73;4.70;;;8.70;99.90;;;;;;5092341;28;20123;-62
2024/01/22 03:04:02;;;;;;;10.40;4.50;;;8.70;99.90;;;;;;5108464;28;20189;-62
2024/01/22 03:06:28;;;;;;;10.38;4.47;;;8.60;99.90;;;;;;5107378;28;20066;-62
2024/01/22 03:08:54;;;;;;;5.32;3.25;;;8.70;99.90;;;;;;5091308;28;20122;-62
2024/01/22 03:11:20;;;;;;;7.38;4.07;;;8.70;99.90;;;;;;5091789;28;20063;-62
2024/01/22 03:13:46;;;;;;;7.28;3.67;;;8.70;99.90;;;;;;5091084;28;20165;-62
2024/01/22 03:16:11;;;;;;;7.63;3.92;;;8.70;99.90;;;;;;5090221;28;20122;-62
2024/01/22 03:18:37;;;;;;;9.80;3.78;;;8.70;99.90;;;;;;5091357;28;20510;-62
2024/01/22 03:21:04;;;;;;;8.43;3.67;;;8.70;99.90;;;;;;5091161;28;20155;-62
2024/01/22 03:23:30;;;;;;;7.28;3.42;;;8.80;99.90;;;;;;5090401;28;20127;-62
2024/01/22 03:25:56;;;;;;;8.13;3.85;;;8.80;99.90;;;;;;5090446;28;20129;-62
2024/01/22 03:28:21;;;;;;;8.02;3.88;;;8.80;99.90;;;;;;5090833;28;20492;-62
2024/01/22 03:30:47;;;;;;;10.63;3.92;;;8.80;99.90;;;;;;5090871;28;20059;-62
2024/01/22 03:33:13;;;;;;;9.45;3.50;;;8.80;99.90;;;;;;5090852;28;20161;-62
2024/01/22 03:35:38;;;;;;;11.30;4.28;;;8.80;99.90;;;;;;5090472;28;20120;-62
2024/01/22 03:38:04;;;;;;;7.53;3.72;;;8.80;99.90;;;;;;5091078;28;20040;-61
2024/01/22 03:40:30;;;;;;;6.47;3.40;;;8.90;99.90;;;;;;5089555;28;20055;-62
2024/01/22 03:42:56;;;;;;;7.13;3.33;;;8.90;99.90;;;;;;5092262;28;20043;-61
2024/01/22 03:45:21;;;;;;;6.35;3.25;;;8.90;99.90;;;;;;5090469;28;20070;-62
2024/01/22 03:47:47;;;;;;;9.27;4.43;;;8.90;99.90;;;;;;5090799;28;20036;-62
2024/01/22 03:50:12;;;;;;;7.45;3.55;;;8.90;99.90;;;;;;5090397;28;20040;-61
2024/01/22 03:52:38;;;;;;;6.65;3.15;;;9.00;99.90;;;;;;5090576;28;20093;-62
2024/01/22 03:55:04;;;;;;;6.70;3.70;;;8.90;99.90;;;;;;5089908;28;20127;-62
2024/01/22 03:57:30;;;;;;;5.47;2.92;;;9.10;99.90;;;;;;5090071;28;20044;-62
2024/01/22 03:59:56;;;;;;;8.82;3.17;;;9.10;99.90;;;;;;5091268;28;20051;-62
2024/01/22 04:02:21;;;;;;;6.45;3.15;;;9.20;99.90;;;;;;5090024;28;20507;-62
2024/01/22 04:04:47;;;;;;;6.43;3.20;;;9.20;99.90;;;;;;5073481;28;20048;-62
2024/01/22 04:07:12;;;;;;;5.75;2.35;;;9.20;99.90;;;;;;5090079;28;20500;-62
2024/01/22 04:09:38;;;;;;;6.75;2.60;;;9.30;99.90;;;;;;5090179;28;20036;-62
2024/01/22 04:12:04;;;;;;;6.60;2.22;;;9.40;99.90;;;;;;5094785;28;20040;-62
2024/01/22 04:14:30;;;;;;;5.18;2.58;;;9.40;99.90;;;;;;5076825;28;20048;-62
2024/01/22 04:16:55;;;;;;;7.97;2.55;;;9.50;99.90;;;;;;5093576;28;20044;-62
2024/01/22 04:19:21;;;;;;;5.78;2.35;;;9.50;99.90;;;;;;5094141;28;20038;-62
2024/01/22 04:21:47;;;;;;;5.80;2.45;;;9.50;99.90;;;;;;5093232;28;20032;-63
2024/01/22 04:24:13;;;;;;;7.72;2.50;;;9.50;99.90;;;;;;5077232;28;20047;-63
2024/01/22 04:26:39;;;;;;;5.32;2.50;;;9.40;99.90;;;;;;5093487;28;20044;-62
2024/01/22 04:29:04;;;;;;;5.20;2.63;;;9.50;99.90;;;;;;5093670;28;20043;-62
2024/01/22 04:31:30;;;;;;;5.40;2.40;;;9.60;99.90;;;;;;5093750;28;20400;-62
2024/01/22 04:33:56;;;;;;;5.28;2.25;;;9.60;99.90;;;;;;5077300;28;20076;-62
2024/01/22 04:36:21;;;;;;;5.80;2.47;;;9.60;99.90;;;;;;5093050;28;20125;-62
2024/01/22 04:38:47;;;;;;;4.18;2.20;;;9.60;99.90;;;;;;5095243;28;20117;-63
2024/01/22 04:41:13;;;;;;;4.82;2.50;;;9.60;99.90;;;;;;5095186;28;20054;-62
2024/01/22 04:43:39;;;;;;;5.43;2.03;;;9.60;99.90;;;;;;5092797;28;20063;-63
2024/01/22 04:46:06;;;;;;;5.05;2.05;;;9.60;99.90;;;;;;5093750;28;20156;-62
2024/01/22 04:48:31;;;;;;;8.52;2.40;;;9.70;99.90;;;;;;5093394;28;20044;-63
2024/01/22 04:50:57;;;;;;;5.82;2.10;;;9.60;99.90;;;;;;5094345;28;20032;-62
2024/01/22 04:53:23;;;;;;;5.50;2.30;;;9.70;99.90;;;;;;5093619;28;20043;-62
2024/01/22 04:55:51;;;;;;;4.47;2.25;;;9.70;99.90;;;;;;5094758;28;20040;-62
2024/01/22 04:58:17;;;;;;;4.47;2.22;;;9.70;99.90;;;;;;5092423;28;20588;-62
2024/01/22 05:00:43;;;;;;;4.43;2.10;;;9.60;99.90;;;;;;5094497;28;20182;-63
2024/01/22 05:03:08;;;;;;;4.75;2.10;;;9.60;99.90;;;;;;5094533;28;20040;-62
2024/01/22 05:05:34;;;;;;;3.85;1.80;;;9.70;99.90;;;;;;5092196;28;20039;-63
2024/01/22 05:08:01;;;;;;;5.57;2.28;;;9.60;99.90;;;;;;5110576;28;20039;-63
2024/01/22 05:10:26;;;;;;;6.63;2.88;;;9.60;99.90;;;;;;5093291;28;20093;-62
2024/01/22 05:12:52;;;;;;;4.63;1.80;;;9.60;99.90;;;;;;5092311;28;20039;-62
2024/01/22 05:15:18;;;;;;;4.68;2.10;;;9.50;99.90;;;;;;5093169;28;20119;-63
2024/01/22 05:17:43;;;;;;;4.25;1.95;;;9.60;99.90;;;;;;5076282;28;20043;-62
2024/01/22 05:20:10;;;;;;;4.00;1.77;;;9.50;99.90;;;;;;5092403;28;20036;-62
2024/01/22 05:22:36;;;;;;;5.20;1.95;;;9.40;99.90;;;;;;5091735;28;20512;-62
2024/01/22 05:25:02;;;;;;;4.75;2.40;;;9.50;99.90;;;;;;5092392;28;20118;-62
2024/01/22 05:27:29;;;;;;;4.90;2.17;;;9.50;99.90;;;;;;5091820;28;20044;-62
2024/01/22 05:29:55;;;;;;;4.50;2.13;;;9.40;99.90;;;;;;5094363;28;20036;-62
2024/01/22 05:32:20;;;;;;;4.78;2.10;;;9.40;99.90;;;;;;5092167;28;20393;-62
2024/01/22 05:34:46;;;;;;;5.22;2.53;;;9.40;99.90;;;;;;5092824;28;20503;-62
2024/01/22 05:37:12;;;;;;;5.82;2.38;;;9.50;99.90;;;;;;5093073;28;20497;-63
2024/01/22 05:39:38;;;;;;;5.03;2.03;;;9.40;99.90;;;;;;5093329;28;20438;-62
2024/01/22 05:42:04;;;;;;;8.02;2.92;;;9.40;99.90;;;;;;5092833;28;20484;-62
2024/01/22 05:44:30;;;;;;;4.70;2.20;;;9.40;99.90;;;;;;5092434;28;20086;-62
2024/01/22 05:46:56;;;;;;;5.53;2.50;;;9.30;99.90;;;;;;5091286;28;20500;-62
2024/01/22 05:49:21;;;;;;;6.05;2.25;;;9.30;99.90;;;;;;5093672;28;20358;-62
2024/01/22 05:51:47;;;;;;;5.55;1.75;;;9.40;99.90;;;;;;5093921;28;20076;-63
2024/01/22 05:54:14;;;;;;;3.22;1.52;;;9.40;99.90;;;;;;5091621;28;20071;-63
2024/01/22 05:56:39;;;;;;;5.40;1.73;;;9.40;99.90;;;;;;5092182;28;20032;-64
2024/01/22 05:59:05;;;;;;;5.63;2.25;;;9.30;99.90;;;;;;5092115;28;20385;-63
2024/01/22 06:01:31;;;;;;;6.38;1.80;;;9.40;99.90;;;;;;5101394;28;20478;-64
2024/01/22 06:03:57;;;;;;;4.00;1.67;;;9.40;99.90;;;;;;5072204;28;20041;-64
2024/01/22 06:06:23;;;;;;;9.32;2.05;;;9.40;99.90;;;;;;5072177;28;20048;-64
2024/01/22 06:08:50;;;;;;;4.47;1.63;;;9.40;99.90;;;;;;5089652;28;20477;-64
2024/01/22 06:11:19;;;;;;;6.55;1.90;;;9.40;99.90;;;;;;5071698;28;20049;-64
2024/01/22 06:13:45;;;;;;;8.77;2.33;;;9.50;99.90;;;;;;5073096;28;20040;-64
2024/01/22 06:16:12;;;;;;;6.03;2.00;;;9.40;99.90;;;;;;5070651;28;20040;-64
2024/01/22 06:18:45;;;;;;;6.68;2.20;;;9.50;99.90;;;;;;5055400;28;20093;-64
2024/01/22 06:21:11;;;;;;;8.48;2.70;;;9.50;99.90;;;;;;5094830;28;20097;-64
2024/01/22 06:23:37;;;;;;;12.73;3.22;;;9.50;99.90;;;;;;5108389;28;20074;-64
2024/01/22 06:26:03;;;;;;;11.57;2.40;;;9.50;99.90;;;;;;5092237;28;20040;-63
2024/01/22 06:28:31;;;;;;;7.20;2.33;;;9.50;99.90;;;;;;5092083;28;20385;-63
2024/01/22 06:30:57;;;;;;;10.18;3.50;;;9.50;99.90;;;;;;5093469;28;20047;-63
2024/01/22 06:33:23;;;;;;;6.40;2.17;;;9.50;99.90;;;;;;5091665;28;20066;-63
2024/01/22 06:35:49;;;;;;;8.15;3.35;;;9.70;99.90;;;;;;5090952;28;20048;-63
2024/01/22 06:38:18;;;;;;;9.52;2.50;;;9.70;99.90;;;;;;5091178;28;20453;-63
2024/01/22 06:40:45;;;;;;;16.00;4.82;;;9.60;99.90;;;;;;5090772;28;20040;-63
2024/01/22 06:43:11;;;;;;;12.95;3.83;;;9.70;99.90;;;;;;5091892;28;20048;-63
2024/01/22 06:45:37;;;;;;;11.23;3.78;;;9.80;99.90;;;;;;5091694;28;20047;-63
2024/01/22 06:48:03;;;;;;;21.40;4.65;;;9.90;99.90;;;;;;5092059;28;20036;-63
2024/01/22 06:50:29;;;;;;;22.42;5.45;;;9.90;99.90;;;;;;5090755;28;20036;-64
2024/01/22 06:52:54;;;;;;;14.85;5.28;;;10.00;99.90;;;;;;5108501;28;20466;-63
2024/01/22 06:55:21;;;;;;;24.98;5.35;;;10.00;99.90;;;;;;5091022;28;20028;-62
2024/01/22 06:57:47;;;;;;;20.67;5.43;;;10.00;99.90;;;;;;5090377;28;20508;-63
2024/01/22 07:00:15;;;;;;;20.13;5.32;;;10.10;99.90;;;;;;5091035;28;20059;-63
2024/01/22 07:02:43;;;;;;;23.02;5.88;;;10.10;99.90;;;;;;5090855;28;20040;-63
2024/01/22 07:05:12;;;;;;;14.30;4.60;;;10.10;99.90;;;;;;5090150;28;20039;-63
2024/01/22 07:07:39;;;;;;;23.27;6.03;;;10.10;99.90;;;;;;5090353;28;20032;-63
2024/01/22 07:10:07;;;;;;;26.05;5.40;;;10.20;99.90;;;;;;5091976;28;20032;-64
2024/01/22 07:12:42;;;;;;;19.70;6.05;;;10.10;99.90;;;;;;5090389;28;20036;-64
2024/01/22 07:15:12;;;;;;;25.30;5.95;;;10.10;99.90;;;;;;5090404;28;20055;-64
2024/01/22 07:17:39;;;;;;;26.00;6.85;;;10.10;99.90;;;;;;5081535;28;20107;-64
2024/01/22 07:20:06;;;;;;;19.17;5.53;;;10.10;99.90;;;;;;5086720;28;20054;-64
2024/01/22 07:22:32;;;;;;;20.83;6.43;;;10.00;99.90;;;;;;5088307;28;20128;-64
2024/01/22 07:24:58;;;;;;;26.20;7.45;;;10.10;99.90;;;;;;5087957;28;20111;-64
2024/01/22 07:27:23;;;;;;;24.08;6.68;;;10.00;99.90;;;;;;5082505;28;20024;-64
2024/01/22 07:29:49;;;;;;;23.40;8.07;;;9.90;99.90;;;;;;5084940;28;20120;-64
2024/01/22 07:32:14;;;;;;;31.80;8.25;;;9.90;99.90;;;;;;5086936;28;20105;-64
2024/01/22 07:34:40;;;;;;;29.60;7.25;;;9.90;99.90;;;;;;5099087;28;20108;-64
2024/01/22 07:37:06;;;;;;;23.25;7.40;;;9.90;99.90;;;;;;5106906;28;20102;-64
2024/01/22 07:39:32;;;;;;;22.50;6.22;;;9.80;99.90;;;;;;5089666;28;20047;-64
2024/01/22 07:41:58;;;;;;;21.10;5.55;;;9.90;99.90;;;;;;5091001;28;20036;-64
2024/01/22 07:44:23;;;;;;;25.80;6.75;;;9.80;99.90;;;;;;5091935;28;20123;-64
2024/01/22 07:46:50;;;;;;;17.05;5.65;;;9.80;99.90;;;;;;5095227;28;20129;-64
2024/01/22 07:49:16;;;;;;;19.33;4.57;;;9.80;99.90;;;;;;5094902;28;20054;-64
2024/01/22 07:51:42;;;;;;;21.48;4.25;;;9.70;99.90;;;;;;5094652;28;20036;-64
2024/01/22 07:54:07;;;;;;;19.30;4.55;;;9.80;99.90;;;;;;5094348;28;20044;-64
2024/01/22 07:56:33;;;;;;;16.85;4.38;;;9.70;99.90;;;;;;5108462;28;20039;-64
2024/01/22 07:58:58;;;;;;;12.00;4.82;;;9.70;99.90;;;;;;5091707;28;20051;-64
2024/01/22 08:01:24;;;;;;;19.92;5.07;;;9.70;99.90;;;;;;5090917;28;20127;-64
2024/01/22 08:03:55;;;;;;;13.20;3.80;;;9.60;99.90;;;;;;5091394;28;20519;-64
2024/01/22 08:06:21;;;;;;;15.23;4.47;;;9.60;99.90;;;;;;5091959;28;20392;-64
2024/01/22 08:08:46;;;;;;;14.88;4.32;;;9.70;99.90;;;;;;5091885;28;20036;-64
2024/01/22 08:11:13;;;;;;;14.25;4.00;;;9.60;99.90;;;;;;5092455;28;20118;-65
2024/01/22 08:13:38;;;;;;;16.42;4.35;;;9.60;99.90;;;;;;5091568;28;20166;-64
2024/01/22 08:16:04;;;;;;;13.75;4.53;;;9.60;99.90;;;;;;5089778;28;20119;-64
2024/01/22 08:18:30;;;;;;;19.05;4.40;;;9.50;99.90;;;;;;5091875;28;20190;-64
2024/01/22 08:20:56;;;;;;;16.35;4.90;;;9.50;99.90;;;;;;5091361;28;20039;-64
2024/01/22 08:23:21;;;;;;;19.45;5.57;;;9.40;99.90;;;;;;5092000;28;20151;-64
2024/01/22 08:25:47;;;;;;;20.88;4.60;;;9.40;99.90;;;;;;5088400;28;20550;-64
2024/01/22 08:28:13;;;;;;;17.77;4.25;;;9.40;99.90;;;;;;5090166;28;20127;-64
2024/01/22 08:30:38;;;;;;;15.80;4.88;;;9.30;99.90;;;;;;5091019;28;20040;-64
2024/01/22 08:33:04;;;;;;;17.60;5.63;;;9.30;99.90;;;;;;5074291;28;20116;-64
2024/01/22 08:35:30;;;;;;;23.33;6.72;;;9.30;99.90;;;;;;5090073;28;20043;-64
2024/01/22 08:37:56;;;;;;;21.92;6.35;;;9.30;99.90;;;;;;5092682;28;20036;-64
2024/01/22 08:40:22;;;;;;;15.82;5.32;;;9.30;99.90;;;;;;5073805;28;20127;-64
2024/01/22 08:42:50;;;;;;;26.23;6.05;;;9.30;99.90;;;;;;5073164;28;20040;-64
2024/01/22 08:45:16;;;;;;;27.30;7.18;;;9.30;99.90;;;;;;5101787;28;20104;-64
2024/01/22 08:47:45;;;;;;;29.27;7.80;;;9.30;99.90;;;;;;5094845;28;20055;-64
2024/01/22 08:50:23;;;;;;;25.02;7.13;;;9.30;99.90;;;;;;5090103;28;20032;-64
2024/01/22 08:52:52;;;;;;;25.58;7.18;;;9.20;99.90;;;;;;5091250;28;20170;-64
2024/01/22 08:55:20;;;;;;;25.70;9.15;;;9.30;99.90;;;;;;5074212;28;20048;-64
2024/01/22 08:57:46;;;;;;;27.15;9.13;;;9.20;99.90;;;;;;5089062;28;20140;-63
2024/01/22 09:00:13;;;;;;;36.33;9.73;;;9.20;99.90;;;;;;5090652;28;20533;-64
2024/01/22 09:02:39;;;;;;;28.20;9.43;;;9.20;99.90;;;;;;5090387;28;20039;-64
2024/01/22 09:05:14;;;;;;;30.70;8.57;;;9.20;99.90;;;;;;5098297;28;20054;-64
2024/01/22 09:07:41;;;;;;;39.35;8.75;;;9.20;99.90;;;;;;5109484;28;20047;-64
2024/01/22 09:10:07;;;;;;;34.15;8.60;;;9.10;99.90;;;;;;5089661;28;20075;-64
2024/01/22 09:12:48;;;;;;;29.20;8.00;;;9.20;99.90;;;;;;5090554;28;20071;-64
2024/01/22 09:15:17;;;;;;;27.55;7.53;;;9.20;99.90;;;;;;5088639;28;20119;-64
2024/01/22 09:17:43;;;;;;;19.98;7.55;;;9.20;99.90;;;;;;5071951;28;20052;-64
2024/01/22 09:20:10;;;;;;;31.05;8.27;;;9.20;99.90;;;;;;5092822;28;20537;-64
2024/01/22 09:22:35;;;;;;;23.27;8.13;;;9.30;99.90;;;;;;5092639;28;20468;-64
2024/01/22 09:25:01;;;;;;;17.55;6.28;;;9.30;99.90;;;;;;5075527;28;20055;-63
2024/01/22 09:27:27;;;;;;;32.30;7.57;;;9.30;99.90;;;;;;5092410;28;20043;-64
2024/01/22 09:29:53;;;;;;;22.60;6.30;;;9.30;99.90;;;;;;5092791;28;20156;-64
2024/01/22 09:32:18;;;;;;;25.00;7.47;;;9.30;99.90;;;;;;5092279;28;20080;-64
2024/01/22 09:34:44;;;;;;;24.10;7.85;;;9.30;99.90;;;;;;5092939;28;20115;-64
2024/01/22 09:37:11;;;;;;;20.75;5.38;;;9.30;99.90;;;;;;5089547;28;20480;-64
2024/01/22 09:39:36;;;;;;;23.70;5.63;;;9.30;99.90;;;;;;5090443;28;20107;-64
2024/01/22 09:42:03;;;;;;;27.52;6.22;;;9.40;99.90;;;;;;5090575;28;20194;-63
2024/01/22 09:44:29;;;;;;;20.17;5.38;;;9.40;99.90;;;;;;5090007;28;20397;-63
2024/01/22 09:46:56;;;;;;;23.13;6.22;;;9.50;99.90;;;;;;5084037;28;20043;-64
2024/01/22 09:49:23;;;;;;;13.80;5.40;;;9.50;99.90;;;;;;5088327;28;20047;-64
2024/01/22 09:51:50;;;;;;;18.15;5.35;;;9.50;99.90;;;;;;5088781;28;20040;-64
2024/01/22 09:54:18;;;;;;;21.50;6.43;;;9.50;99.90;;;;;;5088609;28;20044;-63
2024/01/22 09:56:54;;;;;;;19.50;5.07;;;9.50;99.90;;;;;;5089195;28;20044;-64
2024/01/22 09:59:22;;;;;;;17.42;5.07;;;9.50;99.90;;;;;;5088503;28;20131;-63
2024/01/22 10:01:49;;;;;;;23.38;6.53;;;9.50;99.90;;;;;;5087529;28;20048;-64
2024/01/22 10:04:15;;;;;;;17.63;5.55;;;9.60;99.90;;;;;;5088582;28;20052;-62
2024/01/22 10:06:42;;;;;;;20.52;6.25;;;9.50;99.90;;;;;;5088600;28;20028;-62
2024/01/22 10:09:08;;;;;;;16.30;5.00;;;9.60;99.90;;;;;;5088238;28;20408;-62
2024/01/22 10:11:35;;;;;;;14.32;3.88;;;9.60;99.90;;;;;;5089267;28;20078;-62
2024/01/22 10:14:01;;;;;;;13.27;3.95;;;9.60;99.90;;;;;;5088428;28;20508;-62
2024/01/22 10:16:31;;;;;;;14.88;4.03;;;9.60;99.90;;;;;;5090714;28;20181;-62
2024/01/22 10:18:59;;;;;;;24.25;4.78;;;9.60;99.90;;;;;;5090807;28;20036;-62
2024/01/22 10:21:25;;;;;;;17.33;3.78;;;9.60;99.90;;;;;;5088281;28;20039;-63
2024/01/22 10:24:02;;;;;;;12.63;4.25;;;9.60;99.90;;;;;;5071735;28;20085;-61
2024/01/22 10:26:30;;;;;;;12.65;4.43;;;9.60;99.90;;;;;;5089506;28;20089;-62
2024/01/22 10:29:18;;;;;;;16.55;4.03;;;9.60;99.90;;;;;;5088842;28;20043;-63
2024/01/22 10:31:59;;;;;;;12.75;3.85;;;9.60;99.90;;;;;;5068330;28;20048;-62
2024/01/22 10:34:30;;;;;;;11.25;3.53;;;9.60;99.90;;;;;;5090145;28;20044;-62
2024/01/22 10:37:08;;;;;;;17.55;4.28;;;9.60;99.90;;;;;;5074527;28;20043;-62
2024/01/22 10:39:36;;;;;;;13.48;3.83;;;9.60;99.90;;;;;;5090988;28;20047;-63
2024/01/22 10:42:13;;;;;;;9.73;2.35;;;9.60;99.90;;;;;;5091433;28;20044;-63
2024/01/22 10:44:47;;;;;;;10.88;3.67;;;9.60;99.90;;;;;;5091565;28;20052;-63
2024/01/22 10:47:14;;;;;;;16.08;4.65;;;9.70;99.90;;;;;;5091073;28;20111;-63
2024/01/22 10:49:43;;;;;;;10.38;3.28;;;9.70;99.90;;;;;;5090658;28;20036;-63
2024/01/22 10:52:09;;;;;;;15.75;3.40;;;9.70;99.90;;;;;;5091383;28;20047;-63
2024/01/22 10:54:35;;;;;;;15.52;4.05;;;9.70;99.90;;;;;;5091299;28;20367;-62
2024/01/22 10:57:03;;;;;;;14.75;4.60;;;9.70;99.90;;;;;;5090841;28;20059;-62
2024/01/22 10:59:33;;;;;;;18.58;4.35;;;9.70;99.90;;;;;;5092276;28;20092;-63
2024/01/22 11:01:59;;;;;;;14.88;5.22;;;9.70;99.90;;;;;;5091569;28;20481;-63
2024/01/22 11:04:31;;;;;;;16.88;3.95;;;9.70;99.90;;;;;;5090205;28;20044;-62
2024/01/22 11:07:01;;;;;;;13.85;3.72;;;9.80;99.90;;;;;;5091632;28;20039;-63
2024/01/22 11:09:32;;;;;;;11.65;4.05;;;9.80;99.90;;;;;;5090860;28;20036;-62
2024/01/22 11:12:10;;;;;;;18.73;4.00;;;9.80;99.90;;;;;;5090850;28;20052;-61
2024/01/22 11:14:40;;;;;;;22.20;4.30;;;9.80;99.90;;;;;;5076135;28;20047;-62
2024/01/22 11:17:06;;;;;;;13.73;2.97;;;9.90;99.90;;;;;;5087442;28;20144;-61
2024/01/22 11:19:33;;;;;;;12.90;2.83;;;9.90;99.90;;;;;;5089010;28;20055;-61
2024/01/22 11:22:00;;;;;;;10.60;2.65;;;9.90;99.90;;;;;;5091023;28;20396;-61
2024/01/22 11:24:26;;;;;;;17.17;3.60;;;9.90;99.90;;;;;;5089049;28;20040;-62
2024/01/22 11:26:51;;;;;;;12.05;3.47;;;9.90;99.90;;;;;;5090048;28;20111;-62
2024/01/22 11:29:25;;;;;;;14.98;4.22;;;10.00;99.90;;;;;;5089902;28;20477;-62
2024/01/22 11:31:50;;;;;;;12.43;4.05;;;9.90;99.90;;;;;;5070632;28;20127;-62
2024/01/22 11:34:38;;;;;;;15.48;3.50;;;9.90;99.90;;;;;;5089873;28;20148;-62
2024/01/22 11:37:04;;;;;;;12.73;4.00;;;9.90;99.90;;;;;;5073556;28;20385;-62
2024/01/22 11:39:32;;;;;;;17.38;4.10;;;9.90;99.90;;;;;;5088440;28;20051;-62
2024/01/22 11:42:25;;;;;;;13.07;3.28;;;9.80;99.90;;;;;;5073587;28;20043;-62
2024/01/22 11:44:52;;;;;;;15.10;2.88;;;9.80;99.90;;;;;;5081724;28;20052;-61
2024/01/22 11:47:22;;;;;;;12.50;3.40;;;9.80;99.90;;;;;;5090068;28;20401;-63
2024/01/22 11:49:49;;;;;;;16.02;4.63;;;9.80;99.90;;;;;;5092532;28;20134;-62
2024/01/22 11:52:17;;;;;;;10.90;2.90;;;9.80;99.90;;;;;;5095698;28;20044;-62
2024/01/22 11:55:05;;;;;;;12.18;3.17;;;9.80;99.90;;;;;;5090438;28;20141;-61
2024/01/22 11:57:36;;;;;;;9.73;3.38;;;9.80;99.90;;;;;;5079616;28;20044;-62
2024/01/22 12:00:09;;;;;;;16.02;3.97;;;9.80;99.90;;;;;;5089710;28;20080;-61
2024/01/22 12:02:36;;;;;;;18.13;4.35;;;9.80;99.90;;;;;;5090687;28;20043;-62
2024/01/22 12:05:03;;;;;;;15.55;3.85;;;9.80;99.90;;;;;;5090775;28;20392;-61
2024/01/22 12:07:36;;;;;;;9.13;3.53;;;9.70;99.90;;;;;;5088843;28;20043;-62
2024/01/22 12:10:04;;;;;;;12.05;3.22;;;9.80;99.90;;;;;;5090562;28;20044;-62
2024/01/22 12:12:30;;;;;;;15.80;4.03;;;9.80;99.90;;;;;;5089769;28;20050;-62
2024/01/22 12:15:01;;;;;;;14.90;3.80;;;9.80;99.90;;;;;;5089671;28;20089;-62
2024/01/22 12:17:27;;;;;;;12.50;3.75;;;9.80;99.90;;;;;;5091953;28;20544;-60
2024/01/22 12:19:56;;;;;;;18.73;5.03;;;9.80;99.90;;;;;;5091714;28;20127;-61
2024/01/22 12:22:23;;;;;;;10.00;3.42;;;9.80;99.90;;;;;;5090412;28;20048;-61
2024/01/22 12:25:09;;;;;;;11.60;2.45;;;9.80;99.90;;;;;;5089457;28;20040;-61
2024/01/22 12:27:36;;;;;;;11.93;2.72;;;9.70;99.90;;;;;;5091037;28;20401;-61
2024/01/22 12:30:08;;;;;;;13.55;3.40;;;9.70;99.90;;;;;;5090589;28;20047;-61
2024/01/22 12:32:35;;;;;;;13.95;3.75;;;9.80;99.90;;;;;;5093578;28;20366;-61
2024/01/22 12:35:02;;;;;;;13.35;2.95;;;9.70;99.90;;;;;;5094860;28;20498;-61
2024/01/22 12:37:29;;;;;;;22.05;4.15;;;9.70;99.90;;;;;;5094080;28;20109;-61
2024/01/22 12:40:09;;;;;;;12.85;3.10;;;9.70;99.90;;;;;;5077523;28;20079;-61
2024/01/22 12:42:34;;;;;;;10.70;3.85;;;9.70;99.90;;;;;;5093411;28;20044;-61
2024/01/22 12:45:01;;;;;;;13.55;4.38;;;9.70;99.90;;;;;;5094045;28;20047;-61
2024/01/22 12:47:29;;;;;;;21.88;3.63;;;9.70;99.90;;;;;;5093892;28;20435;-61
2024/01/22 12:49:55;;;;;;;17.48;4.15;;;9.70;99.90;;;;;;5093474;28;20044;-61